createdAt,value
2022-11-24T00:02:14.765Z,4.40
2022-11-24T00:04:44.531Z,3.40
2022-11-24T00:07:14.629Z,3.52
2022-11-24T00:09:44.206Z,3.05
2022-11-24T00:12:14.150Z,3.42
2022-11-24T00:14:44.559Z,3.67
2022-11-24T00:17:13.975Z,3.00
2022-11-24T00:19:44.083Z,3.17
2022-11-24T00:22:13.810Z,3.42
2022-11-24T00:24:43.580Z,3.13
2022-11-24T00:27:13.516Z,3.27
2022-11-24T00:29:43.546Z,3.08
2022-11-24T00:32:13.307Z,2.90
2022-11-24T00:34:43.115Z,3.40
2022-11-24T00:37:12.849Z,3.67
2022-11-24T00:39:42.585Z,2.80
2022-11-24T00:42:14.093Z,2.98
2022-11-24T00:44:43.922Z,4.13
2022-11-24T00:47:13.792Z,3.60
2022-11-24T00:49:43.562Z,3.20
2022-11-24T00:52:13.174Z,2.97
2022-11-24T00:54:42.938Z,2.80
2022-11-24T00:57:12.722Z,2.63
2022-11-24T00:59:42.490Z,2.67
2022-11-24T01:02:12.299Z,2.70
2022-11-24T01:04:42.162Z,3.03
2022-11-24T01:07:12.041Z,2.50
2022-11-24T01:09:43.505Z,2.50
2022-11-24T01:12:13.485Z,3.00
2022-11-24T01:14:43.509Z,2.72
2022-11-24T01:17:13.537Z,3.10
2022-11-24T01:19:43.271Z,2.87
2022-11-24T01:22:13.023Z,2.33
2022-11-24T01:24:43.187Z,2.83
2022-11-24T01:27:13.000Z,2.77
2022-11-24T01:29:42.730Z,2.57
2022-11-24T01:32:12.506Z,2.77
2022-11-24T01:34:42.596Z,3.22
2022-11-24T01:37:12.057Z,3.00
2022-11-24T01:39:41.859Z,2.83
2022-11-24T01:42:11.785Z,2.92
2022-11-24T01:44:43.013Z,2.67
2022-11-24T01:47:33.682Z,3.00
2022-11-24T01:50:05.525Z,2.33
2022-11-24T01:52:41.143Z,2.85
2022-11-24T01:55:13.911Z,2.83
2022-11-24T01:57:58.570Z,2.60
2022-11-24T02:00:28.837Z,2.60
2022-11-24T02:02:59.824Z,2.93
2022-11-24T02:05:38.554Z,3.00
2022-11-24T02:08:12.843Z,2.47
2022-11-24T02:10:43.934Z,2.20
2022-11-24T02:13:15.782Z,2.60
2022-11-24T02:15:45.621Z,2.60
2022-11-24T02:18:15.032Z,3.07
2022-11-24T02:20:44.837Z,2.10
2022-11-24T02:23:20.553Z,2.23
2022-11-24T02:26:11.422Z,2.50
2022-11-24T02:28:41.744Z,2.40
2022-11-24T02:31:11.689Z,3.20
2022-11-24T02:33:41.632Z,2.10
2022-11-24T02:36:11.255Z,3.45
2022-11-24T02:38:40.994Z,2.47
2022-11-24T02:41:14.077Z,2.30
2022-11-24T02:43:46.278Z,2.70
2022-11-24T02:46:16.158Z,2.45
2022-11-24T02:48:46.036Z,2.93
2022-11-24T02:51:16.047Z,2.98
2022-11-24T02:53:46.136Z,2.53
2022-11-24T02:56:15.618Z,3.20
2022-11-24T02:58:45.663Z,2.85
2022-11-24T03:01:15.464Z,2.70
2022-11-24T03:03:45.356Z,3.13
2022-11-24T03:06:15.059Z,3.00
2022-11-24T03:08:45.181Z,2.92
2022-11-24T03:11:14.663Z,3.20
2022-11-24T03:13:44.394Z,3.63
2022-11-24T03:16:14.178Z,4.12
2022-11-24T03:18:43.925Z,3.27
2022-11-24T03:21:13.952Z,2.62
2022-11-24T03:23:43.688Z,3.03
2022-11-24T03:26:16.127Z,3.07
2022-11-24T03:28:46.485Z,3.03
2022-11-24T03:31:16.442Z,2.80
2022-11-24T03:33:46.183Z,2.57
2022-11-24T03:36:16.794Z,3.58
2022-11-24T03:38:46.760Z,3.07
2022-11-24T03:41:16.870Z,3.08
2022-11-24T03:43:46.586Z,3.07
2022-11-24T03:46:16.175Z,3.53
2022-11-24T03:48:45.858Z,3.00
2022-11-24T03:51:15.634Z,3.33
2022-11-24T03:53:45.400Z,3.63
2022-11-24T03:56:15.837Z,3.05
2022-11-24T03:58:45.630Z,2.77
2022-11-24T04:01:15.425Z,2.70
2022-11-24T04:03:45.172Z,3.03
2022-11-24T04:06:14.982Z,3.13
2022-11-24T04:08:44.803Z,3.10
2022-11-24T04:11:16.486Z,2.47
2022-11-24T04:13:48.417Z,3.80
2022-11-24T04:16:18.169Z,3.00
2022-11-24T04:18:47.895Z,3.03
2022-11-24T04:21:17.924Z,3.15
2022-11-24T04:23:48.087Z,3.30
2022-11-24T04:26:17.525Z,3.07
2022-11-24T04:28:47.280Z,3.23
2022-11-24T04:31:17.795Z,3.83
2022-11-24T04:33:47.575Z,3.20
2022-11-24T04:36:17.189Z,3.97
2022-11-24T04:39:23.378Z,3.77
2022-11-24T04:41:18.339Z,2.77
2022-11-24T04:43:50.454Z,4.03
2022-11-24T04:46:20.244Z,3.33
2022-11-24T04:48:49.994Z,3.00
2022-11-24T04:51:19.808Z,2.77
2022-11-24T04:53:52.970Z,2.87
2022-11-24T04:56:23.005Z,3.17
2022-11-24T04:58:52.736Z,2.87
2022-11-24T05:01:22.550Z,3.10
2022-11-24T05:03:57.229Z,3.87
2022-11-24T05:06:26.976Z,3.80
2022-11-24T05:08:56.711Z,2.67
2022-11-24T05:11:26.443Z,3.10
2022-11-24T05:13:56.170Z,3.03
2022-11-24T05:16:26.503Z,2.47
2022-11-24T05:18:56.526Z,3.02
2022-11-24T05:21:26.635Z,2.75
2022-11-24T05:23:56.065Z,2.92
2022-11-24T05:26:25.578Z,2.90
2022-11-24T05:28:55.543Z,2.53
2022-11-24T05:31:25.374Z,2.00
2022-11-24T05:33:55.109Z,2.17
2022-11-24T05:36:42.437Z,1.30
2022-11-24T05:39:12.163Z,2.07
2022-11-24T05:41:43.172Z,1.45
2022-11-24T05:44:13.000Z,1.62
2022-11-24T05:46:42.824Z,1.60
2022-11-24T05:49:12.581Z,1.83
2022-11-24T05:51:42.317Z,1.30
2022-11-24T05:54:11.729Z,1.37
2022-11-24T05:56:41.764Z,1.52
2022-11-24T05:59:11.488Z,1.43
2022-11-24T06:01:41.274Z,1.00
2022-11-24T06:04:11.198Z,1.42
2022-11-24T06:06:40.974Z,1.10
2022-11-24T06:09:10.685Z,1.47
2022-11-24T06:11:40.426Z,1.30
2022-11-24T06:14:12.816Z,0.90
2022-11-24T06:16:42.607Z,1.50
2022-11-24T06:19:12.970Z,1.20
2022-11-24T06:21:42.730Z,1.20
2022-11-24T06:24:12.211Z,1.27
2022-11-24T06:26:42.476Z,1.10
2022-11-24T06:29:12.197Z,1.30
2022-11-24T06:31:41.979Z,1.10
2022-11-24T06:34:13.804Z,1.50
2022-11-24T06:36:43.548Z,1.43
2022-11-24T06:39:13.259Z,1.33
2022-11-24T06:41:42.976Z,1.00
2022-11-24T06:44:12.750Z,1.50
2022-11-24T06:46:42.740Z,2.02
2022-11-24T06:49:12.641Z,2.00
2022-11-24T06:51:42.549Z,1.93
2022-11-24T06:54:15.043Z,2.17
2022-11-24T06:56:44.958Z,2.07
2022-11-24T06:59:20.389Z,2.40
2022-11-24T07:01:50.079Z,2.90
2022-11-24T07:04:20.249Z,2.70
2022-11-24T07:06:49.981Z,2.40
2022-11-24T07:09:19.708Z,3.33
2022-11-24T07:11:49.429Z,3.50
2022-11-24T07:14:19.113Z,3.30
2022-11-24T07:16:49.474Z,3.23
2022-11-24T07:19:24.718Z,3.43
2022-11-24T07:21:50.697Z,3.70
2022-11-24T07:24:20.508Z,3.45
2022-11-24T07:26:50.265Z,3.30
2022-11-24T07:29:20.031Z,3.10
2022-11-24T07:31:50.247Z,2.92
2022-11-24T07:34:19.997Z,3.33
2022-11-24T07:36:50.131Z,3.37
2022-11-24T07:39:19.805Z,3.27
2022-11-24T07:41:49.838Z,3.20
2022-11-24T07:44:19.279Z,3.40
2022-11-24T07:46:50.644Z,3.07
2022-11-24T07:49:20.713Z,3.70
2022-11-24T07:51:50.524Z,2.93
2022-11-24T07:54:20.060Z,2.97
2022-11-24T07:56:50.168Z,2.83
2022-11-24T07:59:19.894Z,2.90
2022-11-24T08:01:49.688Z,2.87
2022-11-24T08:04:19.218Z,3.00
2022-11-24T08:06:48.969Z,3.07
2022-11-24T08:09:18.735Z,3.23
2022-11-24T08:11:48.775Z,3.12
2022-11-24T08:14:18.207Z,3.37
2022-11-24T08:16:48.023Z,2.20
2022-11-24T08:19:17.767Z,2.30
2022-11-24T08:21:47.700Z,2.70
2022-11-24T08:24:17.257Z,2.80
2022-11-24T08:26:47.567Z,2.60
2022-11-24T08:29:17.289Z,2.10
2022-11-24T08:31:47.438Z,2.42
2022-11-24T08:34:17.095Z,2.37
2022-11-24T08:36:46.855Z,2.70
2022-11-24T08:39:16.587Z,2.30
2022-11-24T08:41:46.398Z,2.50
2022-11-24T08:44:18.145Z,2.20
2022-11-24T08:46:47.967Z,2.30
2022-11-24T08:49:18.831Z,2.10
2022-11-24T08:51:49.903Z,2.15
2022-11-24T08:54:20.304Z,1.72
2022-11-24T08:56:50.934Z,2.40
2022-11-24T08:59:20.856Z,1.77
2022-11-24T09:01:51.075Z,1.75
2022-11-24T09:04:20.925Z,1.72
2022-11-24T09:06:50.739Z,2.00
2022-11-24T09:09:20.500Z,2.20
2022-11-24T09:11:50.224Z,2.57
2022-11-24T09:14:20.079Z,2.42
2022-11-24T09:16:49.907Z,2.10
2022-11-24T09:19:19.642Z,2.17
2022-11-24T09:21:49.379Z,3.03
2022-11-24T09:24:18.987Z,2.10
2022-11-24T09:26:48.751Z,1.70
2022-11-24T09:29:18.498Z,1.97
2022-11-24T09:31:48.288Z,1.80
2022-11-24T09:34:18.059Z,2.07
2022-11-24T09:36:47.796Z,2.57
2022-11-24T09:39:17.515Z,2.13
2022-11-24T09:41:59.199Z,1.97
2022-11-24T09:44:55.224Z,2.70
2022-11-24T09:47:46.126Z,2.03
2022-11-24T09:50:27.921Z,2.10
2022-11-24T09:53:15.584Z,1.90
2022-11-24T09:55:56.986Z,1.97
2022-11-24T09:58:32.356Z,2.12
2022-11-24T10:01:12.227Z,2.33
2022-11-24T10:03:44.763Z,1.70
2022-11-24T10:06:30.077Z,1.70
2022-11-24T10:09:05.796Z,2.43
2022-11-24T10:11:56.043Z,2.03
2022-11-24T10:14:34.319Z,2.27
2022-11-24T10:17:18.892Z,2.53
2022-11-24T10:20:00.541Z,2.50
2022-11-24T10:22:58.536Z,2.33
2022-11-24T10:25:34.153Z,2.80
2022-11-24T10:28:09.368Z,2.34
2022-11-24T10:30:39.222Z,2.73
2022-11-24T10:33:14.979Z,2.33
2022-11-24T10:35:55.980Z,3.30
2022-11-24T10:38:40.449Z,2.10
2022-11-24T10:41:13.244Z,2.67
2022-11-24T10:43:44.146Z,2.70
2022-11-24T10:46:16.267Z,2.30
2022-11-24T10:48:49.069Z,2.33
2022-11-24T10:51:30.534Z,2.20
2022-11-24T10:54:03.338Z,2.73
2022-11-24T10:56:41.187Z,2.50
2022-11-24T10:59:32.453Z,2.83
2022-11-24T11:02:02.707Z,2.53
2022-11-24T11:04:36.941Z,3.03
2022-11-24T11:07:25.289Z,2.87
2022-11-24T11:10:20.705Z,2.43
2022-11-24T11:12:50.592Z,4.00
2022-11-24T11:15:31.697Z,2.83
2022-11-24T11:18:02.194Z,3.37
2022-11-24T11:20:36.544Z,2.98
2022-11-24T11:23:09.324Z,3.07
2022-11-24T11:25:41.019Z,3.47
2022-11-24T11:28:20.463Z,3.04
2022-11-24T11:31:20.053Z,2.47
2022-11-24T11:36:11.767Z,2.87
2022-11-24T11:38:42.470Z,2.47
2022-11-24T11:41:33.461Z,2.60
2022-11-24T11:44:17.873Z,2.47
2022-11-24T11:46:48.265Z,2.80
2022-11-24T11:49:17.979Z,2.70
2022-11-24T11:52:10.373Z,2.95
2022-11-24T11:54:48.577Z,3.00
2022-11-24T11:57:37.320Z,3.10
2022-11-24T12:00:22.920Z,3.07
2022-11-24T12:03:18.069Z,2.80
2022-11-24T12:05:53.533Z,2.83
2022-11-24T12:09:11.653Z,2.80
2022-11-24T12:11:30.395Z,2.70
2022-11-24T12:14:13.277Z,3.23
2022-11-24T12:16:57.392Z,2.33
2022-11-24T12:19:30.191Z,2.63
2022-11-24T12:22:25.169Z,2.60
2022-11-24T12:25:00.587Z,3.03
2022-11-24T12:27:51.524Z,2.40
2022-11-24T12:30:22.994Z,2.67
2022-11-24T12:33:07.940Z,3.07
2022-11-24T12:35:43.891Z,2.40
2022-11-24T12:38:29.350Z,2.92
2022-11-24T12:43:53.668Z,2.47
2022-11-24T12:46:50.308Z,3.03
2022-11-24T12:49:40.522Z,2.60
2022-11-24T12:52:29.031Z,2.83
2022-11-24T12:55:00.587Z,2.05
2022-11-24T12:57:39.757Z,2.50
2022-11-24T13:00:32.703Z,2.67
2022-11-24T13:03:23.450Z,2.43
2022-11-24T13:05:58.948Z,2.20
2022-11-24T13:08:30.549Z,2.73
2022-11-24T13:11:25.328Z,2.27
2022-11-24T13:14:00.474Z,2.30
2022-11-24T13:16:48.756Z,2.23
2022-11-24T13:19:04.850Z,3.30
2022-11-24T13:21:38.697Z,2.63
2022-11-24T13:24:25.082Z,3.40
2022-11-24T13:27:17.951Z,3.00
2022-11-24T13:29:49.540Z,2.67
2022-11-24T13:32:22.150Z,2.30
2022-11-24T13:34:57.595Z,2.93
2022-11-24T13:37:34.564Z,2.90
2022-11-24T13:40:18.100Z,2.50
2022-11-24T13:43:02.649Z,2.50
2022-11-24T13:45:45.798Z,3.20
2022-11-24T13:48:23.982Z,2.77
2022-11-24T13:50:57.071Z,2.52
2022-11-24T13:53:35.592Z,2.60
2022-11-24T13:56:16.334Z,2.57
2022-11-24T13:58:52.435Z,3.37
2022-11-24T14:01:33.431Z,2.45
2022-11-24T14:04:30.418Z,2.40
2022-11-24T14:07:01.179Z,2.57
2022-11-24T14:09:46.602Z,3.33
2022-11-24T14:12:19.156Z,3.22
2022-11-24T14:14:51.663Z,6.80
2022-11-24T14:17:24.457Z,3.17
2022-11-24T14:19:56.708Z,4.37
2022-11-24T14:22:35.300Z,2.67
2022-11-24T14:25:07.641Z,3.33
2022-11-24T14:27:39.988Z,3.70
2022-11-24T14:30:14.408Z,3.16
2022-11-24T14:32:47.202Z,3.20
2022-11-24T14:35:26.070Z,2.83
2022-11-24T14:37:56.490Z,3.23
2022-11-24T14:40:46.559Z,3.67
2022-11-24T14:43:25.115Z,3.20
2022-11-24T14:46:07.172Z,2.37
2022-11-24T14:48:42.762Z,2.47
2022-11-24T14:51:15.278Z,2.47
2022-11-24T14:53:47.641Z,2.60
2022-11-24T14:56:28.674Z,3.12
2022-11-24T14:58:59.538Z,3.00
2022-11-24T15:01:34.794Z,4.12
2022-11-24T15:07:19.158Z,3.00
2022-11-24T15:09:51.973Z,3.60
2022-11-24T15:12:34.400Z,3.07
2022-11-24T15:15:20.115Z,3.10
2022-11-24T15:17:53.448Z,3.35
2022-11-24T15:20:31.995Z,3.12
2022-11-24T15:23:24.205Z,2.40
2022-11-24T15:26:05.538Z,3.03
2022-11-24T15:28:35.441Z,3.80
2022-11-24T15:31:07.338Z,3.93
2022-11-24T15:33:37.019Z,3.60
2022-11-24T15:36:08.873Z,4.35
2022-11-24T15:38:38.607Z,3.60
2022-11-24T15:41:17.719Z,3.20
2022-11-24T15:43:47.841Z,3.33
2022-11-24T15:46:17.467Z,3.12
2022-11-24T15:48:47.300Z,2.50
2022-11-24T15:51:17.049Z,3.47
2022-11-24T15:53:55.671Z,3.00
2022-11-24T15:56:29.163Z,3.47
2022-11-24T15:58:58.676Z,3.50
2022-11-24T16:01:31.658Z,3.70
2022-11-24T16:04:02.504Z,3.33
2022-11-24T16:06:32.496Z,3.47
2022-11-24T16:09:02.251Z,3.10
2022-11-24T16:11:32.007Z,2.63
2022-11-24T16:14:02.050Z,2.90
2022-11-24T16:16:31.972Z,2.70
2022-11-24T16:19:01.773Z,3.03
2022-11-24T16:21:31.911Z,3.80
2022-11-24T16:24:01.395Z,2.90
2022-11-24T16:26:31.160Z,2.40
2022-11-24T16:29:00.887Z,3.50
2022-11-24T16:31:30.993Z,3.22
2022-11-24T16:34:00.749Z,3.30
2022-11-24T16:36:30.323Z,2.80
2022-11-24T16:39:01.132Z,3.33
2022-11-24T16:41:30.893Z,3.43
2022-11-24T16:44:00.641Z,3.00
2022-11-24T16:46:30.474Z,3.20
2022-11-24T16:49:01.140Z,4.03
2022-11-24T16:51:34.680Z,3.33
2022-11-24T16:54:04.002Z,3.13
2022-11-24T16:56:33.821Z,3.37
2022-11-24T16:59:03.733Z,2.73
2022-11-24T17:01:33.583Z,3.07
2022-11-24T17:04:06.997Z,3.10
2022-11-24T17:06:35.496Z,3.20
2022-11-24T17:09:05.667Z,3.50
2022-11-24T17:11:35.442Z,2.80
2022-11-24T17:14:05.823Z,3.23
2022-11-24T17:16:35.705Z,3.23
2022-11-24T17:19:06.500Z,3.40
2022-11-24T17:21:36.616Z,3.80
2022-11-24T17:24:10.074Z,3.55
2022-11-24T17:26:42.501Z,3.40
2022-11-24T17:29:11.414Z,3.53
2022-11-24T17:31:41.230Z,3.63
2022-11-24T17:34:13.416Z,2.74
2022-11-24T17:36:44.882Z,2.43
2022-11-24T17:39:15.332Z,3.22
2022-11-24T17:41:45.520Z,3.87
2022-11-24T17:44:15.249Z,3.57
2022-11-24T17:46:45.655Z,3.70
2022-11-24T17:49:15.398Z,4.20
2022-11-24T17:51:46.763Z,3.63
2022-11-24T17:54:45.229Z,3.27
2022-11-24T17:56:48.891Z,4.00
2022-11-24T17:59:18.859Z,3.43
2022-11-24T18:01:48.670Z,3.30
2022-11-24T18:04:18.399Z,3.43
2022-11-24T18:06:48.194Z,3.40
2022-11-24T18:09:18.247Z,3.47
2022-11-24T18:11:47.974Z,3.60
2022-11-24T18:14:17.756Z,3.33
2022-11-24T18:16:47.610Z,4.00
2022-11-24T18:19:17.745Z,3.75
2022-11-24T18:21:47.455Z,3.73
2022-11-24T18:24:23.777Z,3.77
2022-11-24T18:26:50.137Z,4.07
2022-11-24T18:29:19.881Z,3.83
2022-11-24T18:31:49.701Z,3.57
2022-11-24T18:34:19.727Z,3.55
2022-11-24T18:36:51.109Z,3.37
2022-11-24T18:39:20.572Z,3.50
2022-11-24T18:41:50.401Z,3.67
2022-11-24T18:44:20.584Z,3.12
2022-11-24T18:46:50.695Z,3.83
2022-11-24T18:49:20.458Z,3.03
2022-11-24T18:51:50.596Z,3.37
2022-11-24T18:54:20.513Z,3.87
2022-11-24T18:56:50.360Z,3.03
2022-11-24T18:59:20.178Z,3.27
2022-11-24T19:01:50.091Z,3.73
2022-11-24T19:04:19.825Z,3.55
2022-11-24T19:06:49.559Z,3.60
2022-11-24T19:09:21.419Z,2.97
2022-11-24T19:11:51.145Z,2.80
2022-11-24T19:14:20.963Z,3.10
2022-11-24T19:16:50.938Z,3.27
2022-11-24T19:19:20.751Z,3.57
2022-11-24T19:21:50.492Z,3.23
2022-11-24T19:24:19.987Z,3.00
2022-11-24T19:26:51.193Z,3.10
2022-11-24T19:29:21.393Z,3.33
2022-11-24T19:31:51.198Z,3.00
2022-11-24T19:34:21.031Z,3.27
2022-11-24T19:36:50.765Z,3.37
2022-11-24T19:39:20.564Z,3.30
2022-11-24T19:41:50.309Z,2.90
2022-11-24T19:44:20.102Z,3.62
2022-11-24T19:46:49.915Z,2.70
2022-11-24T19:49:19.629Z,3.10
2022-11-24T19:51:49.935Z,3.13
2022-11-24T19:54:19.658Z,3.27
2022-11-24T19:56:49.463Z,2.70
2022-11-24T19:59:19.407Z,2.70
2022-11-24T20:01:49.244Z,3.53
2022-11-24T20:04:20.277Z,2.90
2022-11-24T20:06:50.029Z,3.53
2022-11-24T20:09:19.820Z,3.30
2022-11-24T20:11:49.561Z,2.93
2022-11-24T20:14:19.380Z,2.70
2022-11-24T20:16:49.432Z,3.17
2022-11-24T20:19:19.786Z,2.80
2022-11-24T20:21:50.245Z,3.00
2022-11-24T20:24:24.640Z,3.22
2022-11-24T20:26:58.180Z,3.23
2022-11-24T20:29:29.156Z,2.80
2022-11-24T20:31:58.940Z,3.20
2022-11-24T20:34:28.803Z,3.35
2022-11-24T20:36:58.538Z,2.80
2022-11-24T20:39:29.150Z,2.87
2022-11-24T20:41:59.488Z,3.03
2022-11-24T20:44:30.111Z,2.42
2022-11-24T20:47:01.205Z,3.07
2022-11-24T20:49:30.774Z,2.50
2022-11-24T20:52:00.673Z,2.80
2022-11-24T20:54:31.062Z,3.40
2022-11-24T20:57:00.800Z,2.87
2022-11-24T20:59:30.591Z,3.13
2022-11-24T21:02:00.478Z,2.60
2022-11-24T21:04:30.568Z,2.83
2022-11-24T21:07:00.375Z,2.90
2022-11-24T21:09:30.560Z,3.07
2022-11-24T21:12:00.889Z,3.07
2022-11-24T21:14:35.135Z,3.17
2022-11-24T21:17:02.284Z,2.35
2022-11-24T21:19:32.024Z,2.67
2022-11-24T21:22:01.478Z,3.05
2022-11-24T21:24:31.221Z,2.53
2022-11-24T21:27:00.961Z,2.50
2022-11-24T21:29:30.406Z,3.00
2022-11-24T21:32:00.365Z,2.63
2022-11-24T21:34:29.881Z,2.80
2022-11-24T21:36:59.609Z,2.87
2022-11-24T21:39:29.729Z,2.65
2022-11-24T21:41:59.484Z,2.20
2022-11-24T21:44:30.911Z,2.22
2022-11-24T21:47:01.037Z,2.63
2022-11-24T21:49:31.129Z,2.55
2022-11-24T21:52:00.878Z,2.80
2022-11-24T21:54:30.899Z,3.17
2022-11-24T21:57:00.658Z,2.80
2022-11-24T21:59:30.682Z,3.08
2022-11-24T22:02:00.579Z,2.57
2022-11-24T22:04:30.035Z,2.55
2022-11-24T22:06:59.763Z,3.63
2022-11-24T22:09:29.799Z,3.22
2022-11-24T22:11:59.551Z,3.07
2022-11-24T22:14:29.272Z,3.50
2022-11-24T22:16:59.051Z,3.30
2022-11-24T22:19:28.787Z,2.87
2022-11-24T22:21:58.549Z,3.40
2022-11-24T22:24:27.995Z,3.43
2022-11-24T22:26:58.027Z,2.95
2022-11-24T22:29:28.243Z,2.70
2022-11-24T22:31:58.444Z,2.60
2022-11-24T22:34:28.034Z,3.03
2022-11-24T22:36:58.062Z,2.77
2022-11-24T22:39:27.811Z,2.57
2022-11-24T22:41:57.538Z,2.97
2022-11-24T22:44:27.270Z,2.30
2022-11-24T22:46:57.882Z,2.73
2022-11-24T22:49:28.224Z,2.83
2022-11-24T22:51:57.984Z,3.00
2022-11-24T22:54:28.009Z,3.45
2022-11-24T22:56:57.746Z,2.93
2022-11-24T22:59:27.479Z,2.90
2022-11-24T23:01:57.251Z,3.07
2022-11-24T23:04:27.393Z,2.70
2022-11-24T23:06:57.190Z,3.17
2022-11-24T23:09:27.001Z,2.80
2022-11-24T23:11:56.751Z,2.60
2022-11-24T23:14:26.998Z,2.50
2022-11-24T23:16:56.679Z,2.83
2022-11-24T23:19:26.742Z,3.27
2022-11-24T23:21:56.474Z,2.70
2022-11-24T23:24:26.274Z,2.90
2022-11-24T23:26:56.007Z,2.73
2022-11-24T23:29:26.037Z,3.40
2022-11-24T23:31:55.837Z,2.67
2022-11-24T23:34:25.577Z,2.60
2022-11-24T23:36:55.314Z,3.40
2022-11-24T23:39:25.054Z,2.33
2022-11-24T23:41:54.508Z,2.75
2022-11-24T23:44:24.237Z,3.30
2022-11-24T23:46:53.970Z,2.93
2022-11-24T23:49:23.706Z,3.27
2022-11-24T23:51:53.610Z,3.00
2022-11-24T23:54:23.347Z,2.67
2022-11-24T23:56:52.975Z,2.10
2022-11-24T23:59:22.798Z,2.50
